Nearby METAR Reports

 

KOXC - Oxford/Waterbury, Connecticut, USA
Distance from station: SE 8mi, 12km
Updated: Fri, 29-May-2015 1:55pm EDT
Few Clouds
Few Clouds
 Wind from varies
Wind: varies 6 mph , 9 km/h
Temperature: 79°F , 26°C
Dew Point: 57°F , 14°C
Humidity: 48%
Barometer: 30.30 inHg , 1026.1 hPa
Clouds: Few Clouds
Visibility: 10 miles , 16 km
Cloud details: Few Clouds 7000 ft
2015/05/29 17:55 KOXC 291755Z VRB05KT 10SM FEW070 26/14 A3030
KDXR - Danbury, Connecticut, USA
Distance from station: SW 19mi, 30km
Updated: Fri, 29-May-2015 1:53pm EDT
Clear
Clear
 Wind from WSW
Wind: WSW 9 mph , 15 km/h
Temperature: 79°F , 26°C
Dew Point: 57°F , 14°C
Humidity: 48%
Barometer: 30.27 inHg , 1025.1 hPa
Clouds: Clear
Visibility: 10 miles , 16 km
2015/05/29 17:53 KDXR 291753Z 25008KT 10SM CLR 26/14 A3027 RMK AO2 SLP248 T02560139 10256 20183 58013
 
KMMK - Meriden, Connecticut, USA
Distance from station: E 20mi, 33km
Updated: Fri, 29-May-2015 1:53pm EDT
Clear
Clear
 Wind from varies
Wind: varies 7 mph , 11 km/h
Temperature: 84°F , 29°C
Dew Point: 54°F , 12°C
Humidity: 35%
Barometer: 30.25 inHg , 1024.4 hPa
Clouds: Clear
Visibility: 10 miles , 16 km
2015/05/29 17:53 KMMK 291753Z AUTO VRB06KT 10SM CLR 29/12 A3025 RMK AO2 SLP243 T02890122 10289 20200 58013 TSNO
KBDR - Bridgeport, Connecticut, USA
Distance from station: S 27mi, 44km
Updated: Fri, 29-May-2015 1:52pm EDT
Clear
Clear
 Wind from SSE
Wind: SSE 7 mph , 11 km/h
Temperature: 75°F , 24°C
Dew Point: 55°F , 13°C
Humidity: 50%
Barometer: 30.27 inHg , 1025.1 hPa
Clouds: Clear
Visibility: 10 miles , 16 km
2015/05/29 17:52 KBDR 291752Z 16006KT 10SM CLR 24/13 A3027 RMK AO2 SLP250 T02390128 10244 20200 58007
 
KHVN - New Haven/Tweed, Connecticut, USA
Distance from station: SE 27mi, 44km
Updated: Fri, 29-May-2015 1:53pm EDT
Clear
Clear
 Wind from S
Wind: S 10 mph , 17 km/h
Temperature: 75°F , 24°C
Dew Point: 57°F , 14°C
Humidity: 54%
Barometer: 30.27 inHg , 1025.1 hPa
Clouds: Clear
Visibility: 10 miles , 16 km
2015/05/29 17:53 KHVN 291753Z 18009KT 10SM CLR 24/14 A3027 RMK AO2 SLP250 T02440139 10244 20194 58005
KHFD - Hartford/Brainar, Connecticut, USA
Distance from station: ENE 32mi, 52km
Updated: Fri, 29-May-2015 1:53pm EDT
Clear
Clear
 Wind from SE
Wind: SE 10 mph , 17 km/h
Temperature: 81°F , 27°C
Heat Index: 81°F , 27°C
Dew Point: 55°F , 13°C
Humidity: 42%
Barometer: 30.25 inHg , 1024.4 hPa
Clouds: Clear
Visibility: 10 miles , 16 km
2015/05/29 17:53 KHFD 291753Z 13009KT 10SM CLR 27/13 A3025 RMK AO2 SLP244 T02670133 10267 20189 56013
 
KPOU - Poughkeepsie, New York, USA
Distance from station: W 35mi, 56km
Updated: Fri, 29-May-2015 1:53pm EDT
Clear
Clear
 Wind from W
Wind: W 6 mph , 9 km/h
Temperature: 79°F , 26°C
Dew Point: 55°F , 13°C
Humidity: 45%
Barometer: 30.25 inHg , 1024.4 hPa
Clouds: Clear
Visibility: 10 miles , 16 km
2015/05/29 17:53 KPOU 291753Z 27005KT 10SM CLR 26/13 A3025 RMK AO2 SLP239 T02610128 10267 20183 58013
KBDL - Windsor Locks, Connecticut, USA
Distance from station: NE 38mi, 62km
Updated: Fri, 29-May-2015 1:51pm EDT
Mostly cloudy
Mostly cloudy
 Wind from varies
Wind: varies 5 mph , 7 km/h
Temperature: 82°F , 28°C
Heat Index: 82°F , 28°C
Dew Point: 59°F , 15°C
Humidity: 45%
Barometer: 30.25 inHg , 1024.4 hPa
Clouds: Mostly cloudy
Visibility: 10 miles , 16 km
Cloud details: Partly cloudy 4500 ft
Mostly cloudy 25000 ft
2015/05/29 17:51 KBDL 291751Z VRB04KT 10SM SCT045 BKN250 28/15 A3025 RMK AO2 SLP242 T02780150 10278 20189 58012
 
KSNC - Chester, Connecticut, USA
Distance from station: ESE 39mi, 63km
Updated: Fri, 29-May-2015 1:35pm EDT
Clear
Clear
 Wind from SE
Wind: SE 10 mph , 17 km/h
Temperature: 77°F , 25°C
Dew Point: 57°F , 14°C
Humidity: 51%
Barometer: 30.28 inHg , 1025.4 hPa
Clouds: Clear
Visibility: 10 miles , 16 km
2015/05/29 17:35 KSNC 291735Z AUTO 14009KT 10SM CLR 25/14 A3028 RMK AO2
KHPN - White Plains, New York, USA
Distance from station: SW 42mi, 67km
Updated: Fri, 29-May-2015 1:56pm EDT
Clear
Clear
 Wind from calm
Wind: Calm
Temperature: 75°F , 24°C
Dew Point: 55°F , 13°C
Humidity: 50%
Barometer: 30.27 inHg , 1025.1 hPa
Clouds: Clear
Visibility: 10 miles , 16 km
2015/05/29 17:56 KHPN 291756Z 00000KT 10SM CLR 24/13 A3027 RMK AO2 SLP245 T02440128 10250 20194 58009
 
KSWF - Newburgh/Stewart, New York, USA
Distance from station: W 45mi, 72km
Updated: Fri, 29-May-2015 1:45pm EDT
Clear
Clear
 Wind from calm
Wind: Calm
Temperature: 79°F , 26°C
Dew Point: 57°F , 14°C
Humidity: 48%
Barometer: 30.28 inHg , 1025.4 hPa
Clouds: Clear
Visibility: 20 miles , 32 km
2015/05/29 17:45 KSWF 291745Z 00000KT 20SM SKC 26/14 A3028
KBAF - Westfield, Massachusetts, USA
Distance from station: NNE 50mi, 80km
Updated: Fri, 29-May-2015 1:53pm EDT
Few Clouds
Few Clouds
 Wind from WSW
Wind: WSW 5 mph , 7 km/h
Temperature: 81°F , 27°C
Heat Index: 81°F , 27°C
Dew Point: 57°F , 14°C
Humidity: 45%
Barometer: 30.25 inHg , 1024.4 hPa
Clouds: Few Clouds
Visibility: 10 miles , 16 km
Cloud details: Few Clouds 4700 ft
2015/05/29 17:53 KBAF 291753Z 25004KT 10SM FEW047 27/14 A3025 RMK AO2 SLP244 T02720139 10272 20183 58014